Observations for CRANWELL RAF, United Kingdom (EGYD)

EGYD 180250Z AUTO 17002KT 6000 // FEW070/// M01/M01 Q1021   
EGYD 180150Z AUTO 20004KT 9999 // NCD M00/M00 Q1021 
EGYD 180050Z AUTO 17006KT 4900 // NCD M00/M01 Q1021 
EGYD 172350Z AUTO 16008KT 9999 // FEW070/// M01/M02 Q1021   
EGYD 172250Z AUTO 18007KT 9999 // NCD M00/M01 Q1021 
EGYD 172150Z AUTO 18005KT 9999 // NCD 00/M00 Q1021  
EGYD 172050Z AUTO 19007KT 9999 // NCD 01/M00 Q1021  
EGYD 171950Z AUTO 20006KT 9999 // NCD 01/M00 Q1021  
EGYD 171850Z AUTO 19008KT 9999 // NCD 02/01 Q1021   
EGYD 171750Z AUTO 19006KT 9999 // SCT046/// 04/02 Q1021 
EGYD 171650Z 20008KT 9999 FEW025 BKN040 06/03 Q1020 BLU 
EGYD 171550Z 21009KT 9999 SCT025 BKN040 07/03 Q1020 BLU NOSIG   
EGYD 171450Z 21012KT 9999 FEW025 SCT035 BKN060 08/03 Q1020 BLU NOSIG
EGYD 171350Z 18007KT 9999 FEW020 BKN028 OVC035 07/04 Q1020 BLU NOSIG
EGYD 171250Z 23012KT 9999 -RA SCT018 BKN045 06/03 Q1021 WHT BECMG FEW018 BLU
EGYD 171221Z 21013KT 9999 SCT020 BKN060 BKN080 07/03 Q1021 WHT NOSIG
EGYD 171150Z 20012KT 9999 FEW018 SCT050 BKN080 07/03 Q1021 BLU TEMPO SCT018 WHT 
EGYD 171050Z 18011KT 9999 SCT045 BKN070 06/03 Q1021 BLU NOSIG   
EGYD 170950Z 17008KT CAVOK 04/02 Q1020 BLU NOSIG
EGYD 170850Z 18009KT CAVOK 03/01 Q1020 BLU NOSIG
EGYD 170750Z 23006KT CAVOK 01/00 Q1020 BLU NOSIG
EGYD 170650Z AUTO 20008KT 9999 // OVC080/// 02/01 Q1020 
EGYD 170550Z AUTO 17004KT 9000 // BKN080/// M01/M01 Q1020   
EGYD 170450Z AUTO 15006KT 9000 // BKN080/// M02/M02 Q1020   
EGYD 170350Z AUTO 15006KT 9999 // BKN100/// M01/M02 Q1020   
EGYD 170250Z AUTO 15008KT 9999 // NCD M01/M02 Q1021